Terminal Aerodrome Forecast
Issued by NWS Goodland, KS

Home | Current Version | Previous Version | Text Only | Print | Product List | Glossary On
Versions: 1 2 3 4 5 6 7 8 9 10 11 12 13 14 15 16
254
FTUS43 KGLD 162200 AAB
TAFGLD
TAF AMD
KGLD 162200Z 1622/1718 34015G25KT 6SM -SHSN SCT003 OVC010
     FM170000 33012KT P6SM VCSH SCT015 BKN035
     FM170500 30009KT P6SM FEW035 SCT070=

USA.gov is the U.S. government's official web portal to all federal, state and local government web resources and services.